sensor_id;sensor_type;location;lat;lon;timestamp;P1;durP1;ratioP1;P2;durP2;ratioP2
28335;SDS011;15592;53.656;7.276;2023-07-31T00:00:08;10.63;;;4.60;;
28335;SDS011;15592;53.656;7.276;2023-07-31T00:02:34;8.75;;;4.40;;
28335;SDS011;15592;53.656;7.276;2023-07-31T00:05:00;12.02;;;5.28;;
28335;SDS011;15592;53.656;7.276;2023-07-31T00:07:26;8.88;;;5.00;;
28335;SDS011;15592;53.656;7.276;2023-07-31T00:09:52;8.35;;;4.72;;
28335;SDS011;15592;53.656;7.276;2023-07-31T00:12:18;7.97;;;5.25;;
28335;SDS011;15592;53.656;7.276;2023-07-31T00:14:45;10.10;;;5.68;;
28335;SDS011;15592;53.656;7.276;2023-07-31T00:17:11;10.88;;;5.55;;
28335;SDS011;15592;53.656;7.276;2023-07-31T00:19:36;10.80;;;5.68;;
28335;SDS011;15592;53.656;7.276;2023-07-31T00:22:02;9.52;;;6.18;;
28335;SDS011;15592;53.656;7.276;2023-07-31T00:24:28;9.98;;;5.57;;
28335;SDS011;15592;53.656;7.276;2023-07-31T00:26:54;9.70;;;5.63;;
28335;SDS011;15592;53.656;7.276;2023-07-31T00:29:19;10.07;;;6.03;;
28335;SDS011;15592;53.656;7.276;2023-07-31T00:31:45;10.02;;;5.78;;
28335;SDS011;15592;53.656;7.276;2023-07-31T00:34:10;9.32;;;5.90;;
28335;SDS011;15592;53.656;7.276;2023-07-31T00:36:36;10.20;;;6.50;;
28335;SDS011;15592;53.656;7.276;2023-07-31T00:39:02;9.43;;;6.00;;
28335;SDS011;15592;53.656;7.276;2023-07-31T00:41:27;8.43;;;5.90;;
28335;SDS011;15592;53.656;7.276;2023-07-31T00:43:53;8.73;;;5.80;;
28335;SDS011;15592;53.656;7.276;2023-07-31T00:46:19;7.25;;;5.68;;
28335;SDS011;15592;53.656;7.276;2023-07-31T00:48:45;6.55;;;5.30;;
28335;SDS011;15592;53.656;7.276;2023-07-31T00:51:11;10.10;;;5.70;;
28335;SDS011;15592;53.656;7.276;2023-07-31T00:53:36;8.27;;;6.22;;
28335;SDS011;15592;53.656;7.276;2023-07-31T00:56:03;8.15;;;5.68;;
28335;SDS011;15592;53.656;7.276;2023-07-31T00:58:29;8.65;;;5.43;;
28335;SDS011;15592;53.656;7.276;2023-07-31T01:00:55;8.43;;;5.95;;
28335;SDS011;15592;53.656;7.276;2023-07-31T01:03:20;8.60;;;5.63;;
28335;SDS011;15592;53.656;7.276;2023-07-31T01:06:05;6.78;;;5.38;;
28335;SDS011;15592;53.656;7.276;2023-07-31T01:11:19;7.47;;;4.90;;
28335;SDS011;15592;53.656;7.276;2023-07-31T01:13:51;6.65;;;5.13;;
28335;SDS011;15592;53.656;7.276;2023-07-31T01:16:18;6.85;;;5.03;;
28335;SDS011;15592;53.656;7.276;2023-07-31T01:18:43;8.00;;;5.05;;
28335;SDS011;15592;53.656;7.276;2023-07-31T01:26:41;5.90;;;5.05;;
28335;SDS011;15592;53.656;7.276;2023-07-31T01:31:40;12.80;;;5.65;;
28335;SDS011;15592;53.656;7.276;2023-07-31T01:34:11;5.43;;;4.93;;
28335;SDS011;15592;53.656;7.276;2023-07-31T01:36:38;9.15;;;5.90;;
28335;SDS011;15592;53.656;7.276;2023-07-31T01:39:04;8.25;;;6.05;;
28335;SDS011;15592;53.656;7.276;2023-07-31T01:41:30;9.55;;;5.97;;
28335;SDS011;15592;53.656;7.276;2023-07-31T01:43:55;7.82;;;7.03;;
28335;SDS011;15592;53.656;7.276;2023-07-31T01:46:21;9.90;;;6.65;;
28335;SDS011;15592;53.656;7.276;2023-07-31T01:48:47;8.77;;;6.20;;
28335;SDS011;15592;53.656;7.276;2023-07-31T01:51:12;8.48;;;6.00;;
28335;SDS011;15592;53.656;7.276;2023-07-31T01:53:38;7.78;;;6.20;;
28335;SDS011;15592;53.656;7.276;2023-07-31T01:56:04;7.50;;;6.40;;
28335;SDS011;15592;53.656;7.276;2023-07-31T01:58:30;6.68;;;5.38;;
28335;SDS011;15592;53.656;7.276;2023-07-31T02:00:55;7.68;;;5.68;;
28335;SDS011;15592;53.656;7.276;2023-07-31T02:03:21;7.22;;;5.55;;
28335;SDS011;15592;53.656;7.276;2023-07-31T02:05:47;6.57;;;5.63;;
28335;SDS011;15592;53.656;7.276;2023-07-31T02:08:14;6.47;;;5.50;;
28335;SDS011;15592;53.656;7.276;2023-07-31T02:10:41;7.03;;;4.80;;
28335;SDS011;15592;53.656;7.276;2023-07-31T02:13:07;8.18;;;5.35;;
28335;SDS011;15592;53.656;7.276;2023-07-31T02:15:33;6.93;;;4.15;;
28335;SDS011;15592;53.656;7.276;2023-07-31T02:17:59;4.65;;;4.15;;
28335;SDS011;15592;53.656;7.276;2023-07-31T02:20:24;5.43;;;3.92;;
28335;SDS011;15592;53.656;7.276;2023-07-31T02:22:50;5.90;;;3.65;;
28335;SDS011;15592;53.656;7.276;2023-07-31T02:25:16;4.55;;;3.35;;
28335;SDS011;15592;53.656;7.276;2023-07-31T02:27:42;3.65;;;3.03;;
28335;SDS011;15592;53.656;7.276;2023-07-31T02:30:07;4.15;;;3.10;;
28335;SDS011;15592;53.656;7.276;2023-07-31T02:32:34;5.03;;;2.85;;
28335;SDS011;15592;53.656;7.276;2023-07-31T02:34:59;5.80;;;3.20;;
28335;SDS011;15592;53.656;7.276;2023-07-31T02:37:25;5.30;;;2.92;;
28335;SDS011;15592;53.656;7.276;2023-07-31T02:39:51;4.43;;;3.33;;
28335;SDS011;15592;53.656;7.276;2023-07-31T02:42:16;5.18;;;3.40;;
28335;SDS011;15592;53.656;7.276;2023-07-31T02:44:42;4.30;;;2.85;;
28335;SDS011;15592;53.656;7.276;2023-07-31T02:47:08;4.03;;;3.08;;
28335;SDS011;15592;53.656;7.276;2023-07-31T02:49:33;3.30;;;2.80;;
28335;SDS011;15592;53.656;7.276;2023-07-31T02:51:59;3.85;;;2.85;;
28335;SDS011;15592;53.656;7.276;2023-07-31T02:54:25;4.30;;;3.13;;
28335;SDS011;15592;53.656;7.276;2023-07-31T02:56:50;3.75;;;3.35;;
28335;SDS011;15592;53.656;7.276;2023-07-31T02:59:16;3.42;;;3.08;;
28335;SDS011;15592;53.656;7.276;2023-07-31T03:01:42;3.25;;;2.92;;
28335;SDS011;15592;53.656;7.276;2023-07-31T03:04:08;7.30;;;4.28;;
28335;SDS011;15592;53.656;7.276;2023-07-31T03:06:34;4.95;;;4.00;;
28335;SDS011;15592;53.656;7.276;2023-07-31T03:08:59;3.85;;;3.47;;
28335;SDS011;15592;53.656;7.276;2023-07-31T03:11:25;4.60;;;3.70;;
28335;SDS011;15592;53.656;7.276;2023-07-31T03:13:50;5.45;;;3.53;;
28335;SDS011;15592;53.656;7.276;2023-07-31T03:16:16;3.85;;;3.45;;
28335;SDS011;15592;53.656;7.276;2023-07-31T03:18:42;6.43;;;3.92;;
28335;SDS011;15592;53.656;7.276;2023-07-31T03:21:07;5.07;;;3.20;;
28335;SDS011;15592;53.656;7.276;2023-07-31T03:23:33;4.22;;;3.63;;
28335;SDS011;15592;53.656;7.276;2023-07-31T03:25:59;4.03;;;3.25;;
28335;SDS011;15592;53.656;7.276;2023-07-31T03:28:28;4.93;;;3.53;;
28335;SDS011;15592;53.656;7.276;2023-07-31T03:30:54;5.30;;;4.10;;
28335;SDS011;15592;53.656;7.276;2023-07-31T03:33:20;4.80;;;3.80;;
28335;SDS011;15592;53.656;7.276;2023-07-31T03:35:46;3.75;;;3.10;;
28335;SDS011;15592;53.656;7.276;2023-07-31T03:38:12;4.78;;;3.45;;
28335;SDS011;15592;53.656;7.276;2023-07-31T03:40:37;3.88;;;3.30;;
28335;SDS011;15592;53.656;7.276;2023-07-31T03:43:03;4.82;;;2.95;;
28335;SDS011;15592;53.656;7.276;2023-07-31T03:45:28;5.00;;;2.88;;
28335;SDS011;15592;53.656;7.276;2023-07-31T03:47:54;3.33;;;3.03;;
28335;SDS011;15592;53.656;7.276;2023-07-31T03:50:20;3.80;;;2.92;;
28335;SDS011;15592;53.656;7.276;2023-07-31T03:52:46;3.50;;;3.13;;
28335;SDS011;15592;53.656;7.276;2023-07-31T03:55:11;5.47;;;3.65;;
28335;SDS011;15592;53.656;7.276;2023-07-31T03:57:37;4.53;;;3.80;;
28335;SDS011;15592;53.656;7.276;2023-07-31T04:00:03;6.45;;;4.28;;
28335;SDS011;15592;53.656;7.276;2023-07-31T04:02:29;5.05;;;3.65;;
28335;SDS011;15592;53.656;7.276;2023-07-31T04:04:54;6.22;;;3.80;;
28335;SDS011;15592;53.656;7.276;2023-07-31T04:07:20;5.65;;;3.35;;
28335;SDS011;15592;53.656;7.276;2023-07-31T04:09:46;5.38;;;3.35;;
28335;SDS011;15592;53.656;7.276;2023-07-31T04:12:11;5.55;;;3.10;;
28335;SDS011;15592;53.656;7.276;2023-07-31T04:14:37;3.63;;;2.95;;
28335;SDS011;15592;53.656;7.276;2023-07-31T04:17:02;4.32;;;3.05;;
28335;SDS011;15592;53.656;7.276;2023-07-31T04:19:28;3.05;;;2.53;;
28335;SDS011;15592;53.656;7.276;2023-07-31T04:21:54;5.38;;;3.25;;
28335;SDS011;15592;53.656;7.276;2023-07-31T04:24:19;3.47;;;2.63;;
28335;SDS011;15592;53.656;7.276;2023-07-31T04:26:49;2.92;;;2.45;;
28335;SDS011;15592;53.656;7.276;2023-07-31T04:29:16;3.67;;;2.95;;
28335;SDS011;15592;53.656;7.276;2023-07-31T04:31:41;4.25;;;2.78;;
28335;SDS011;15592;53.656;7.276;2023-07-31T04:34:07;4.13;;;2.67;;
28335;SDS011;15592;53.656;7.276;2023-07-31T04:36:33;3.05;;;2.55;;
28335;SDS011;15592;53.656;7.276;2023-07-31T04:38:59;3.90;;;2.70;;
28335;SDS011;15592;53.656;7.276;2023-07-31T04:41:25;3.97;;;2.80;;
28335;SDS011;15592;53.656;7.276;2023-07-31T04:43:51;7.15;;;3.35;;
28335;SDS011;15592;53.656;7.276;2023-07-31T04:46:16;5.05;;;2.90;;
28335;SDS011;15592;53.656;7.276;2023-07-31T04:48:42;3.97;;;2.80;;
28335;SDS011;15592;53.656;7.276;2023-07-31T04:51:08;3.47;;;2.65;;
28335;SDS011;15592;53.656;7.276;2023-07-31T04:53:36;4.00;;;3.00;;
28335;SDS011;15592;53.656;7.276;2023-07-31T04:56:02;5.40;;;2.95;;
28335;SDS011;15592;53.656;7.276;2023-07-31T04:58:28;3.78;;;3.05;;
28335;SDS011;15592;53.656;7.276;2023-07-31T05:00:54;6.10;;;3.00;;
28335;SDS011;15592;53.656;7.276;2023-07-31T05:03:19;4.38;;;2.75;;
28335;SDS011;15592;53.656;7.276;2023-07-31T05:05:45;4.22;;;2.95;;
28335;SDS011;15592;53.656;7.276;2023-07-31T05:08:11;4.03;;;2.90;;
28335;SDS011;15592;53.656;7.276;2023-07-31T05:10:37;4.00;;;2.67;;
28335;SDS011;15592;53.656;7.276;2023-07-31T05:13:02;3.25;;;2.60;;
28335;SDS011;15592;53.656;7.276;2023-07-31T05:15:28;3.15;;;2.60;;
28335;SDS011;15592;53.656;7.276;2023-07-31T05:17:54;2.95;;;2.30;;
28335;SDS011;15592;53.656;7.276;2023-07-31T05:20:20;5.13;;;2.75;;
28335;SDS011;15592;53.656;7.276;2023-07-31T05:22:46;3.92;;;2.40;;
28335;SDS011;15592;53.656;7.276;2023-07-31T05:25:12;5.05;;;2.33;;
28335;SDS011;15592;53.656;7.276;2023-07-31T05:27:37;3.85;;;2.45;;
28335;SDS011;15592;53.656;7.276;2023-07-31T05:30:03;4.05;;;2.33;;
28335;SDS011;15592;53.656;7.276;2023-07-31T05:32:30;3.53;;;2.50;;
28335;SDS011;15592;53.656;7.276;2023-07-31T05:34:56;2.83;;;2.53;;
28335;SDS011;15592;53.656;7.276;2023-07-31T05:37:22;4.05;;;2.67;;
28335;SDS011;15592;53.656;7.276;2023-07-31T05:39:47;4.03;;;2.45;;
28335;SDS011;15592;53.656;7.276;2023-07-31T05:42:13;4.53;;;2.35;;
28335;SDS011;15592;53.656;7.276;2023-07-31T05:44:39;3.42;;;2.30;;
28335;SDS011;15592;53.656;7.276;2023-07-31T05:47:04;3.35;;;2.30;;
28335;SDS011;15592;53.656;7.276;2023-07-31T05:49:30;3.55;;;2.60;;
28335;SDS011;15592;53.656;7.276;2023-07-31T05:51:55;3.83;;;2.55;;
28335;SDS011;15592;53.656;7.276;2023-07-31T05:54:21;2.55;;;2.20;;
28335;SDS011;15592;53.656;7.276;2023-07-31T05:56:47;4.15;;;2.65;;
28335;SDS011;15592;53.656;7.276;2023-07-31T05:59:13;2.72;;;2.50;;
28335;SDS011;15592;53.656;7.276;2023-07-31T06:01:39;3.65;;;2.38;;
28335;SDS011;15592;53.656;7.276;2023-07-31T06:04:04;5.22;;;2.97;;
28335;SDS011;15592;53.656;7.276;2023-07-31T06:06:30;3.03;;;2.65;;
28335;SDS011;15592;53.656;7.276;2023-07-31T06:08:56;3.58;;;2.30;;
28335;SDS011;15592;53.656;7.276;2023-07-31T06:11:21;3.72;;;2.53;;
28335;SDS011;15592;53.656;7.276;2023-07-31T06:13:48;2.38;;;2.00;;
28335;SDS011;15592;53.656;7.276;2023-07-31T06:16:14;3.53;;;2.45;;
28335;SDS011;15592;53.656;7.276;2023-07-31T06:18:40;2.28;;;1.90;;
28335;SDS011;15592;53.656;7.276;2023-07-31T06:21:06;2.80;;;1.70;;
28335;SDS011;15592;53.656;7.276;2023-07-31T06:23:32;6.70;;;2.15;;
28335;SDS011;15592;53.656;7.276;2023-07-31T06:25:58;3.75;;;1.90;;
28335;SDS011;15592;53.656;7.276;2023-07-31T06:28:27;2.65;;;1.70;;
28335;SDS011;15592;53.656;7.276;2023-07-31T06:30:56;2.50;;;1.70;;
28335;SDS011;15592;53.656;7.276;2023-07-31T06:33:22;2.38;;;1.50;;
28335;SDS011;15592;53.656;7.276;2023-07-31T06:35:48;2.65;;;1.85;;
28335;SDS011;15592;53.656;7.276;2023-07-31T06:38:14;2.22;;;1.42;;
28335;SDS011;15592;53.656;7.276;2023-07-31T06:40:39;2.30;;;1.50;;
28335;SDS011;15592;53.656;7.276;2023-07-31T06:43:05;1.83;;;1.70;;
28335;SDS011;15592;53.656;7.276;2023-07-31T06:45:34;2.60;;;1.80;;
28335;SDS011;15592;53.656;7.276;2023-07-31T06:48:00;2.03;;;1.70;;
28335;SDS011;15592;53.656;7.276;2023-07-31T06:50:27;3.25;;;1.60;;
28335;SDS011;15592;53.656;7.276;2023-07-31T06:52:54;2.47;;;1.48;;
28335;SDS011;15592;53.656;7.276;2023-07-31T06:55:20;2.20;;;1.33;;
28335;SDS011;15592;53.656;7.276;2023-07-31T06:57:50;3.65;;;1.40;;
28335;SDS011;15592;53.656;7.276;2023-07-31T07:00:17;1.77;;;1.30;;
28335;SDS011;15592;53.656;7.276;2023-07-31T07:02:43;1.95;;;1.10;;
28335;SDS011;15592;53.656;7.276;2023-07-31T07:05:09;1.95;;;1.33;;
28335;SDS011;15592;53.656;7.276;2023-07-31T07:07:35;1.20;;;1.10;;
28335;SDS011;15592;53.656;7.276;2023-07-31T07:10:01;1.60;;;1.20;;
28335;SDS011;15592;53.656;7.276;2023-07-31T07:12:29;2.17;;;1.55;;
28335;SDS011;15592;53.656;7.276;2023-07-31T07:14:55;1.40;;;1.30;;
28335;SDS011;15592;53.656;7.276;2023-07-31T07:17:20;1.50;;;1.30;;
28335;SDS011;15592;53.656;7.276;2023-07-31T07:19:47;1.88;;;1.40;;
28335;SDS011;15592;53.656;7.276;2023-07-31T07:22:13;2.63;;;1.42;;
28335;SDS011;15592;53.656;7.276;2023-07-31T07:24:39;2.13;;;1.30;;
28335;SDS011;15592;53.656;7.276;2023-07-31T07:27:05;1.92;;;1.50;;
28335;SDS011;15592;53.656;7.276;2023-07-31T07:29:31;2.22;;;1.50;;
28335;SDS011;15592;53.656;7.276;2023-07-31T07:31:56;3.10;;;1.60;;
28335;SDS011;15592;53.656;7.276;2023-07-31T07:34:22;1.40;;;1.30;;
28335;SDS011;15592;53.656;7.276;2023-07-31T07:36:50;2.75;;;1.30;;
28335;SDS011;15592;53.656;7.276;2023-07-31T07:39:15;1.30;;;1.20;;
28335;SDS011;15592;53.656;7.276;2023-07-31T07:41:41;1.75;;;1.42;;
28335;SDS011;15592;53.656;7.276;2023-07-31T07:44:07;1.45;;;1.20;;
28335;SDS011;15592;53.656;7.276;2023-07-31T07:46:33;1.75;;;1.42;;
28335;SDS011;15592;53.656;7.276;2023-07-31T07:48:59;1.80;;;1.40;;
28335;SDS011;15592;53.656;7.276;2023-07-31T07:51:24;1.80;;;1.42;;
28335;SDS011;15592;53.656;7.276;2023-07-31T07:53:50;1.40;;;1.23;;
28335;SDS011;15592;53.656;7.276;2023-07-31T07:56:16;2.25;;;1.50;;
28335;SDS011;15592;53.656;7.276;2023-07-31T07:58:41;1.63;;;1.27;;
28335;SDS011;15592;53.656;7.276;2023-07-31T08:01:07;2.05;;;1.48;;
28335;SDS011;15592;53.656;7.276;2023-07-31T08:03:32;2.30;;;1.50;;
28335;SDS011;15592;53.656;7.276;2023-07-31T08:05:59;1.80;;;1.40;;
28335;SDS011;15592;53.656;7.276;2023-07-31T08:08:25;1.95;;;1.60;;
28335;SDS011;15592;53.656;7.276;2023-07-31T08:10:51;4.05;;;1.90;;
28335;SDS011;15592;53.656;7.276;2023-07-31T08:13:16;1.73;;;1.30;;
28335;SDS011;15592;53.656;7.276;2023-07-31T08:15:42;2.53;;;1.67;;
28335;SDS011;15592;53.656;7.276;2023-07-31T08:18:08;2.05;;;1.70;;
28335;SDS011;15592;53.656;7.276;2023-07-31T08:20:34;1.70;;;1.40;;
28335;SDS011;15592;53.656;7.276;2023-07-31T08:23:00;1.85;;;1.50;;
28335;SDS011;15592;53.656;7.276;2023-07-31T08:25:26;2.05;;;1.65;;
28335;SDS011;15592;53.656;7.276;2023-07-31T08:27:51;2.00;;;1.58;;
28335;SDS011;15592;53.656;7.276;2023-07-31T08:30:18;2.80;;;1.63;;
28335;SDS011;15592;53.656;7.276;2023-07-31T08:32:44;1.92;;;1.70;;
28335;SDS011;15592;53.656;7.276;2023-07-31T08:35:09;2.20;;;1.42;;
28335;SDS011;15592;53.656;7.276;2023-07-31T08:37:35;2.25;;;1.45;;
28335;SDS011;15592;53.656;7.276;2023-07-31T08:40:01;2.13;;;1.63;;
28335;SDS011;15592;53.656;7.276;2023-07-31T08:42:27;1.55;;;1.40;;
28335;SDS011;15592;53.656;7.276;2023-07-31T08:44:53;1.95;;;1.60;;
28335;SDS011;15592;53.656;7.276;2023-07-31T08:47:20;1.60;;;1.50;;
28335;SDS011;15592;53.656;7.276;2023-07-31T08:49:46;1.80;;;1.48;;
28335;SDS011;15592;53.656;7.276;2023-07-31T08:52:13;1.60;;;1.50;;
28335;SDS011;15592;53.656;7.276;2023-07-31T08:54:39;1.55;;;1.27;;
28335;SDS011;15592;53.656;7.276;2023-07-31T08:57:06;1.83;;;1.52;;
28335;SDS011;15592;53.656;7.276;2023-07-31T08:59:33;1.40;;;1.20;;
28335;SDS011;15592;53.656;7.276;2023-07-31T09:02:05;1.42;;;1.25;;
28335;SDS011;15592;53.656;7.276;2023-07-31T09:04:32;1.27;;;1.13;;
28335;SDS011;15592;53.656;7.276;2023-07-31T09:07:02;1.30;;;1.20;;
28335;SDS011;15592;53.656;7.276;2023-07-31T09:09:30;1.25;;;1.15;;
28335;SDS011;15592;53.656;7.276;2023-07-31T09:11:57;1.45;;;1.25;;
28335;SDS011;15592;53.656;7.276;2023-07-31T09:14:27;1.75;;;1.30;;
28335;SDS011;15592;53.656;7.276;2023-07-31T09:16:56;1.40;;;1.27;;
28335;SDS011;15592;53.656;7.276;2023-07-31T09:19:32;1.35;;;1.10;;
28335;SDS011;15592;53.656;7.276;2023-07-31T09:21:59;0.82;;;0.82;;
28335;SDS011;15592;53.656;7.276;2023-07-31T09:24:28;0.93;;;0.73;;
28335;SDS011;15592;53.656;7.276;2023-07-31T09:29:22;1.23;;;0.95;;
28335;SDS011;15592;53.656;7.276;2023-07-31T09:31:48;1.10;;;1.00;;
28335;SDS011;15592;53.656;7.276;2023-07-31T09:34:13;1.13;;;0.90;;
28335;SDS011;15592;53.656;7.276;2023-07-31T09:36:40;1.10;;;1.00;;
28335;SDS011;15592;53.656;7.276;2023-07-31T09:39:08;2.03;;;1.23;;
28335;SDS011;15592;53.656;7.276;2023-07-31T09:41:36;1.02;;;0.93;;
28335;SDS011;15592;53.656;7.276;2023-07-31T09:44:05;1.00;;;0.90;;
28335;SDS011;15592;53.656;7.276;2023-07-31T09:46:32;1.45;;;1.23;;
28335;SDS011;15592;53.656;7.276;2023-07-31T09:49:07;1.17;;;1.05;;
28335;SDS011;15592;53.656;7.276;2023-07-31T09:51:38;1.30;;;1.10;;
28335;SDS011;15592;53.656;7.276;2023-07-31T09:54:11;1.45;;;1.00;;
28335;SDS011;15592;53.656;7.276;2023-07-31T09:56:47;1.25;;;1.00;;
28335;SDS011;15592;53.656;7.276;2023-07-31T09:59:14;1.10;;;1.00;;
28335;SDS011;15592;53.656;7.276;2023-07-31T10:01:41;1.02;;;0.93;;
28335;SDS011;15592;53.656;7.276;2023-07-31T10:04:08;1.55;;;1.05;;
28335;SDS011;15592;53.656;7.276;2023-07-31T10:06:35;1.10;;;1.00;;
28335;SDS011;15592;53.656;7.276;2023-07-31T10:09:02;0.77;;;0.77;;
28335;SDS011;15592;53.656;7.276;2023-07-31T10:11:38;1.17;;;0.80;;
28335;SDS011;15592;53.656;7.276;2023-07-31T10:14:04;1.15;;;0.90;;
28335;SDS011;15592;53.656;7.276;2023-07-31T10:16:31;0.60;;;0.60;;
28335;SDS011;15592;53.656;7.276;2023-07-31T10:18:57;0.82;;;0.75;;
28335;SDS011;15592;53.656;7.276;2023-07-31T10:21:23;1.20;;;0.95;;
28335;SDS011;15592;53.656;7.276;2023-07-31T10:23:49;0.88;;;0.80;;
28335;SDS011;15592;53.656;7.276;2023-07-31T10:26:16;0.80;;;0.80;;
28335;SDS011;15592;53.656;7.276;2023-07-31T10:28:53;0.70;;;0.50;;
28335;SDS011;15592;53.656;7.276;2023-07-31T10:31:19;0.52;;;0.52;;
28335;SDS011;15592;53.656;7.276;2023-07-31T10:33:46;0.68;;;0.52;;
28335;SDS011;15592;53.656;7.276;2023-07-31T10:36:12;0.90;;;0.80;;
28335;SDS011;15592;53.656;7.276;2023-07-31T10:38:49;0.50;;;0.50;;
28335;SDS011;15592;53.656;7.276;2023-07-31T10:41:18;0.90;;;0.70;;
28335;SDS011;15592;53.656;7.276;2023-07-31T10:43:45;0.70;;;0.60;;
28335;SDS011;15592;53.656;7.276;2023-07-31T10:46:12;0.50;;;0.50;;
28335;SDS011;15592;53.656;7.276;2023-07-31T10:48:39;0.63;;;0.63;;
28335;SDS011;15592;53.656;7.276;2023-07-31T10:51:09;0.60;;;0.60;;
28335;SDS011;15592;53.656;7.276;2023-07-31T10:53:37;0.57;;;0.45;;
28335;SDS011;15592;53.656;7.276;2023-07-31T10:56:07;0.52;;;0.50;;
28335;SDS011;15592;53.656;7.276;2023-07-31T10:58:34;0.50;;;0.50;;
28335;SDS011;15592;53.656;7.276;2023-07-31T11:01:02;0.60;;;0.50;;
28335;SDS011;15592;53.656;7.276;2023-07-31T11:03:43;0.80;;;0.70;;
28335;SDS011;15592;53.656;7.276;2023-07-31T11:06:13;0.60;;;0.60;;
28335;SDS011;15592;53.656;7.276;2023-07-31T11:08:44;0.60;;;0.60;;
28335;SDS011;15592;53.656;7.276;2023-07-31T11:11:14;0.95;;;0.60;;
28335;SDS011;15592;53.656;7.276;2023-07-31T11:13:45;0.60;;;0.60;;
28335;SDS011;15592;53.656;7.276;2023-07-31T11:16:15;1.35;;;1.08;;
28335;SDS011;15592;53.656;7.276;2023-07-31T11:18:45;2.60;;;2.40;;
28335;SDS011;15592;53.656;7.276;2023-07-31T11:21:13;2.47;;;2.28;;
28335;SDS011;15592;53.656;7.276;2023-07-31T11:23:40;2.10;;;1.90;;
28335;SDS011;15592;53.656;7.276;2023-07-31T11:26:06;2.10;;;1.90;;
28335;SDS011;15592;53.656;7.276;2023-07-31T11:28:33;2.08;;;1.40;;
28335;SDS011;15592;53.656;7.276;2023-07-31T11:30:59;1.13;;;1.02;;
28335;SDS011;15592;53.656;7.276;2023-07-31T11:33:26;1.20;;;1.10;;
28335;SDS011;15592;53.656;7.276;2023-07-31T11:35:51;1.13;;;1.02;;
28335;SDS011;15592;53.656;7.276;2023-07-31T11:38:32;0.98;;;0.95;;
28335;SDS011;15592;53.656;7.276;2023-07-31T11:40:59;0.90;;;0.90;;
28335;SDS011;15592;53.656;7.276;2023-07-31T11:43:30;0.85;;;0.82;;
28335;SDS011;15592;53.656;7.276;2023-07-31T11:45:57;0.60;;;0.60;;
28335;SDS011;15592;53.656;7.276;2023-07-31T11:48:24;0.80;;;0.80;;
28335;SDS011;15592;53.656;7.276;2023-07-31T11:50:52;0.52;;;0.52;;
28335;SDS011;15592;53.656;7.276;2023-07-31T11:53:21;0.90;;;0.60;;
28335;SDS011;15592;53.656;7.276;2023-07-31T11:55:51;0.57;;;0.57;;
28335;SDS011;15592;53.656;7.276;2023-07-31T11:58:17;0.55;;;0.55;;
28335;SDS011;15592;53.656;7.276;2023-07-31T12:00:44;0.63;;;0.60;;
28335;SDS011;15592;53.656;7.276;2023-07-31T12:03:10;0.50;;;0.50;;
28335;SDS011;15592;53.656;7.276;2023-07-31T12:05:37;0.40;;;0.40;;
28335;SDS011;15592;53.656;7.276;2023-07-31T12:08:03;0.55;;;0.55;;
28335;SDS011;15592;53.656;7.276;2023-07-31T12:10:37;0.45;;;0.45;;
28335;SDS011;15592;53.656;7.276;2023-07-31T12:13:05;0.40;;;0.40;;
28335;SDS011;15592;53.656;7.276;2023-07-31T12:15:38;0.60;;;0.60;;
28335;SDS011;15592;53.656;7.276;2023-07-31T12:18:06;0.57;;;0.57;;
28335;SDS011;15592;53.656;7.276;2023-07-31T12:20:33;1.13;;;0.68;;
28335;SDS011;15592;53.656;7.276;2023-07-31T12:22:59;0.50;;;0.50;;
28335;SDS011;15592;53.656;7.276;2023-07-31T12:25:29;0.52;;;0.52;;
28335;SDS011;15592;53.656;7.276;2023-07-31T12:27:56;0.68;;;0.68;;
28335;SDS011;15592;53.656;7.276;2023-07-31T12:30:32;0.63;;;0.63;;
28335;SDS011;15592;53.656;7.276;2023-07-31T12:33:03;0.60;;;0.60;;
28335;SDS011;15592;53.656;7.276;2023-07-31T12:35:37;0.57;;;0.50;;
28335;SDS011;15592;53.656;7.276;2023-07-31T12:38:05;0.50;;;0.43;;
28335;SDS011;15592;53.656;7.276;2023-07-31T12:40:31;0.98;;;0.70;;
28335;SDS011;15592;53.656;7.276;2023-07-31T12:42:57;1.20;;;0.75;;
28335;SDS011;15592;53.656;7.276;2023-07-31T12:45:25;1.00;;;0.90;;
28335;SDS011;15592;53.656;7.276;2023-07-31T12:47:52;1.00;;;0.80;;
28335;SDS011;15592;53.656;7.276;2023-07-31T12:50:17;1.23;;;1.02;;
28335;SDS011;15592;53.656;7.276;2023-07-31T12:52:43;1.85;;;1.20;;
28335;SDS011;15592;53.656;7.276;2023-07-31T12:55:08;1.20;;;1.10;;
28335;SDS011;15592;53.656;7.276;2023-07-31T12:57:35;1.42;;;1.33;;
28335;SDS011;15592;53.656;7.276;2023-07-31T13:00:01;1.30;;;1.20;;
28335;SDS011;15592;53.656;7.276;2023-07-31T13:02:28;2.25;;;1.50;;
28335;SDS011;15592;53.656;7.276;2023-07-31T13:04:53;2.10;;;1.27;;
28335;SDS011;15592;53.656;7.276;2023-07-31T13:07:21;1.40;;;1.30;;
28335;SDS011;15592;53.656;7.276;2023-07-31T13:09:47;1.40;;;1.30;;
28335;SDS011;15592;53.656;7.276;2023-07-31T13:12:13;1.70;;;1.50;;
28335;SDS011;15592;53.656;7.276;2023-07-31T13:14:38;1.73;;;1.30;;
28335;SDS011;15592;53.656;7.276;2023-07-31T13:17:04;2.45;;;1.60;;
28335;SDS011;15592;53.656;7.276;2023-07-31T13:19:30;2.22;;;1.75;;
28335;SDS011;15592;53.656;7.276;2023-07-31T13:21:55;1.60;;;1.25;;
28335;SDS011;15592;53.656;7.276;2023-07-31T13:24:21;1.50;;;1.40;;
28335;SDS011;15592;53.656;7.276;2023-07-31T13:26:47;1.42;;;1.15;;
28335;SDS011;15592;53.656;7.276;2023-07-31T13:29:12;1.52;;;1.42;;
28335;SDS011;15592;53.656;7.276;2023-07-31T13:31:38;1.73;;;1.60;;
28335;SDS011;15592;53.656;7.276;2023-07-31T13:34:03;1.95;;;1.60;;
28335;SDS011;15592;53.656;7.276;2023-07-31T13:36:29;1.77;;;1.50;;
28335;SDS011;15592;53.656;7.276;2023-07-31T13:38:55;1.48;;;1.38;;
28335;SDS011;15592;53.656;7.276;2023-07-31T13:41:20;2.28;;;1.75;;
28335;SDS011;15592;53.656;7.276;2023-07-31T13:43:46;2.25;;;1.48;;
28335;SDS011;15592;53.656;7.276;2023-07-31T13:46:11;2.95;;;1.83;;
28335;SDS011;15592;53.656;7.276;2023-07-31T13:48:37;2.83;;;1.77;;
28335;SDS011;15592;53.656;7.276;2023-07-31T13:51:03;2.17;;;1.70;;
28335;SDS011;15592;53.656;7.276;2023-07-31T13:53:28;2.67;;;1.85;;
28335;SDS011;15592;53.656;7.276;2023-07-31T13:55:54;6.82;;;1.95;;
28335;SDS011;15592;53.656;7.276;2023-07-31T13:58:20;2.17;;;1.98;;
28335;SDS011;15592;53.656;7.276;2023-07-31T14:00:46;4.32;;;2.03;;
28335;SDS011;15592;53.656;7.276;2023-07-31T14:03:11;3.20;;;2.20;;
28335;SDS011;15592;53.656;7.276;2023-07-31T14:05:37;4.28;;;2.13;;
28335;SDS011;15592;53.656;7.276;2023-07-31T14:08:03;2.42;;;1.80;;
28335;SDS011;15592;53.656;7.276;2023-07-31T14:10:28;2.70;;;1.98;;
28335;SDS011;15592;53.656;7.276;2023-07-31T14:12:54;6.35;;;1.90;;
28335;SDS011;15592;53.656;7.276;2023-07-31T14:15:20;2.17;;;1.88;;
28335;SDS011;15592;53.656;7.276;2023-07-31T14:17:45;2.75;;;1.83;;
28335;SDS011;15592;53.656;7.276;2023-07-31T14:20:11;3.20;;;2.03;;
28335;SDS011;15592;53.656;7.276;2023-07-31T14:22:37;3.53;;;2.30;;
28335;SDS011;15592;53.656;7.276;2023-07-31T14:25:03;2.50;;;2.15;;
28335;SDS011;15592;53.656;7.276;2023-07-31T14:27:29;2.70;;;2.00;;
28335;SDS011;15592;53.656;7.276;2023-07-31T14:29:55;3.67;;;2.35;;
28335;SDS011;15592;53.656;7.276;2023-07-31T14:32:21;3.30;;;2.50;;
28335;SDS011;15592;53.656;7.276;2023-07-31T14:34:50;3.93;;;2.50;;
28335;SDS011;15592;53.656;7.276;2023-07-31T14:37:16;6.22;;;2.45;;
28335;SDS011;15592;53.656;7.276;2023-07-31T14:39:41;3.58;;;2.40;;
28335;SDS011;15592;53.656;7.276;2023-07-31T14:42:08;4.50;;;2.40;;
28335;SDS011;15592;53.656;7.276;2023-07-31T14:44:34;3.80;;;2.22;;
28335;SDS011;15592;53.656;7.276;2023-07-31T14:46:59;5.25;;;2.50;;
28335;SDS011;15592;53.656;7.276;2023-07-31T14:49:25;4.57;;;2.45;;
28335;SDS011;15592;53.656;7.276;2023-07-31T14:51:53;5.88;;;2.70;;
28335;SDS011;15592;53.656;7.276;2023-07-31T14:54:19;6.57;;;3.17;;
28335;SDS011;15592;53.656;7.276;2023-07-31T14:56:44;5.35;;;2.50;;